createdAt,value
2023-03-16T00:00:00.836Z,3.7
2023-03-16T00:05:01.310Z,3.7
2023-03-16T00:10:00.813Z,3.6
2023-03-16T00:15:00.761Z,3.6
2023-03-16T00:20:00.813Z,3.6
2023-03-16T00:25:00.736Z,3.7
2023-03-16T00:30:00.734Z,3.7
2023-03-16T00:35:00.691Z,3.7
2023-03-16T00:40:00.801Z,3.7
2023-03-16T00:45:00.740Z,3.6
2023-03-16T00:50:00.737Z,3.6
2023-03-16T00:55:00.908Z,3.6
2023-03-16T01:00:00.843Z,3.6
2023-03-16T01:05:00.790Z,3.6
2023-03-16T01:10:00.926Z,3.6
2023-03-16T01:15:00.914Z,3.6
2023-03-16T01:20:00.909Z,3.6
2023-03-16T01:25:00.818Z,3.6
2023-03-16T01:35:00.752Z,3.6
2023-03-16T01:45:00.836Z,3.5
2023-03-16T01:50:00.796Z,3.5
2023-03-16T01:55:00.796Z,3.5
2023-03-16T02:00:00.805Z,3.5
2023-03-16T02:05:00.768Z,3.5
2023-03-16T02:10:00.773Z,3.5
2023-03-16T02:15:00.883Z,3.5
2023-03-16T02:20:00.994Z,3.6
2023-03-16T02:25:00.705Z,3.7
2023-03-16T02:30:00.840Z,3.7
2023-03-16T02:35:00.757Z,3.6
2023-03-16T02:40:00.871Z,3.6
2023-03-16T02:45:00.809Z,3.6
2023-03-16T02:50:00.779Z,3.5
2023-03-16T02:55:00.774Z,3.6
2023-03-16T03:00:00.863Z,3.6
2023-03-16T03:05:00.839Z,3.6
2023-03-16T03:10:00.809Z,3.5
2023-03-16T03:15:00.919Z,3.5
2023-03-16T03:20:00.764Z,3.5
2023-03-16T03:25:00.880Z,3.5
2023-03-16T03:30:00.782Z,3.5
2023-03-16T03:35:00.865Z,3.5
2023-03-16T03:40:00.912Z,3.5
2023-03-16T03:45:00.943Z,3.5
2023-03-16T03:50:00.774Z,3.5
2023-03-16T03:55:00.890Z,3.5
2023-03-16T04:00:00.883Z,3.5
2023-03-16T04:05:00.747Z,3.5
2023-03-16T04:10:00.736Z,3.5
2023-03-16T04:15:00.790Z,3.5
2023-03-16T04:20:00.936Z,3.5
2023-03-16T04:25:00.817Z,3.5
2023-03-16T04:30:00.774Z,3.5
2023-03-16T04:35:00.866Z,3.5
2023-03-16T04:40:00.767Z,3.5
2023-03-16T04:45:00.822Z,3.5
2023-03-16T04:50:00.859Z,3.6
2023-03-16T04:55:00.824Z,3.6
2023-03-16T05:00:00.831Z,3.6
2023-03-16T05:05:00.972Z,3.5
2023-03-16T05:10:00.903Z,3.5
2023-03-16T05:15:00.875Z,3.5
2023-03-16T05:20:00.840Z,3.5
2023-03-16T05:25:00.806Z,3.5
2023-03-16T05:30:00.806Z,3.5
2023-03-16T05:35:00.893Z,3.5
2023-03-16T05:40:00.689Z,3.5
2023-03-16T05:45:00.760Z,3.5
2023-03-16T05:50:00.777Z,3.5
2023-03-16T05:55:00.868Z,3.5
2023-03-16T06:00:00.894Z,3.5
2023-03-16T06:05:00.783Z,3.5
2023-03-16T06:10:00.804Z,3.6
2023-03-16T06:15:00.996Z,3.6
2023-03-16T06:20:00.947Z,3.6
2023-03-16T06:25:00.875Z,3.6
2023-03-16T06:30:00.751Z,3.7
2023-03-16T06:35:00.856Z,3.8
2023-03-16T06:40:00.715Z,3.9
2023-03-16T06:45:00.885Z,3.9
2023-03-16T06:50:00.761Z,3.9
2023-03-16T06:55:00.991Z,4
2023-03-16T07:00:00.864Z,4
2023-03-16T07:05:00.854Z,4.1
2023-03-16T07:10:00.784Z,4.1
2023-03-16T07:15:00.815Z,4.1
2023-03-16T07:20:00.869Z,4.2
2023-03-16T07:25:00.793Z,4.2
2023-03-16T07:30:00.766Z,4.3
2023-03-16T07:35:00.787Z,4.5
2023-03-16T07:40:00.746Z,4.8
2023-03-16T07:45:00.767Z,5
2023-03-16T07:50:00.864Z,4.9
2023-03-16T07:55:00.872Z,4.8
2023-03-16T08:00:00.856Z,4.8
2023-03-16T08:05:00.874Z,4.9
2023-03-16T08:10:00.720Z,5
2023-03-16T08:15:00.751Z,5
2023-03-16T08:20:00.883Z,5
2023-03-16T08:25:00.897Z,5
2023-03-16T08:30:00.756Z,4.8
2023-03-16T08:35:00.787Z,4.6
2023-03-16T08:40:00.734Z,4.8
2023-03-16T08:45:00.776Z,4.7
2023-03-16T08:50:00.735Z,4.7
2023-03-16T08:55:03.661Z,4.8
2023-03-16T09:00:00.771Z,4.9
2023-03-16T09:10:00.909Z,4.8
2023-03-16T09:15:00.705Z,4.9
2023-03-16T09:20:11.408Z,4.8
2023-03-16T09:25:00.759Z,4.7
2023-03-16T09:30:00.864Z,4.7
2023-03-16T09:35:00.848Z,4.8
2023-03-16T09:40:06.692Z,4.8
2023-03-16T09:45:00.834Z,4.9
2023-03-16T09:50:00.829Z,4.7
2023-03-16T09:55:00.838Z,4.8
2023-03-16T10:00:00.895Z,4.8
2023-03-16T10:05:00.827Z,4.8
2023-03-16T10:10:00.824Z,5
2023-03-16T10:15:00.859Z,4.9
2023-03-16T10:20:00.790Z,5
2023-03-16T10:25:00.804Z,4.8
2023-03-16T10:30:00.939Z,4.7
2023-03-16T10:35:00.793Z,4.9
2023-03-16T10:40:00.828Z,4.9
2023-03-16T10:45:02.601Z,4.9
2023-03-16T10:50:00.772Z,4.9
2023-03-16T10:55:00.766Z,4.9
2023-03-16T11:00:00.816Z,4.8
2023-03-16T11:05:00.818Z,4.7
2023-03-16T11:10:00.878Z,4.8
2023-03-16T11:15:00.745Z,4.8
2023-03-16T11:20:00.782Z,4.9
2023-03-16T11:25:00.918Z,5
2023-03-16T11:30:00.758Z,5.1
2023-03-16T11:35:00.810Z,5.1
2023-03-16T11:40:00.799Z,4.9
2023-03-16T11:45:00.934Z,5
2023-03-16T11:50:00.874Z,5.2
2023-03-16T11:55:00.741Z,5
2023-03-16T12:00:01.961Z,4.9
2023-03-16T12:05:00.825Z,5.2
2023-03-16T12:10:00.764Z,5.2
2023-03-16T12:15:00.909Z,5.1
2023-03-16T12:20:00.886Z,5.2
2023-03-16T12:25:00.870Z,5.3
2023-03-16T12:30:00.873Z,5.1
2023-03-16T12:35:00.781Z,5.1
2023-03-16T12:40:00.772Z,5.2
2023-03-16T12:45:00.852Z,5.2
2023-03-16T12:50:00.858Z,5.2
2023-03-16T12:55:00.820Z,5.2
2023-03-16T13:00:00.847Z,5.1
2023-03-16T13:05:00.734Z,5.2
2023-03-16T13:10:00.809Z,5.2
2023-03-16T13:15:00.863Z,5.3
2023-03-16T13:20:00.889Z,5.3
2023-03-16T13:25:00.711Z,5.3
2023-03-16T13:30:00.751Z,5.4
2023-03-16T13:35:00.820Z,4.9
2023-03-16T13:40:00.752Z,4.8
2023-03-16T13:45:00.757Z,4.7
2023-03-16T13:50:00.795Z,4.6
2023-03-16T13:55:00.862Z,4.5
2023-03-16T14:00:00.721Z,4.3
2023-03-16T14:05:00.888Z,4.2
2023-03-16T14:10:00.824Z,4.2
2023-03-16T14:15:00.774Z,4.3
2023-03-16T14:20:00.747Z,4.1
2023-03-16T14:25:00.896Z,4
2023-03-16T14:30:00.781Z,4.2
2023-03-16T14:35:00.783Z,3.9
2023-03-16T14:40:00.784Z,4
2023-03-16T14:45:00.863Z,4.2
2023-03-16T14:50:00.761Z,4
2023-03-16T14:55:03.328Z,4.1
2023-03-16T15:00:00.722Z,4.1
2023-03-16T15:05:00.798Z,4.2
2023-03-16T15:10:00.801Z,4.2
2023-03-16T15:15:00.906Z,4.4
2023-03-16T15:20:00.802Z,4.1
2023-03-16T15:25:00.861Z,4.2
2023-03-16T15:30:00.770Z,4.2
2023-03-16T15:35:00.753Z,4.3
2023-03-16T15:40:00.823Z,4.2
2023-03-16T15:45:00.744Z,4.6
2023-03-16T15:50:00.992Z,4.5
2023-03-16T15:55:00.775Z,4.5
2023-03-16T16:00:00.755Z,4.4
2023-03-16T16:05:00.799Z,4.5
2023-03-16T16:10:00.791Z,4.4
2023-03-16T16:15:00.799Z,4.5
2023-03-16T16:20:00.805Z,5.1
2023-03-16T16:25:00.754Z,5.2
2023-03-16T16:30:00.792Z,5
2023-03-16T16:35:04.413Z,5.4
2023-03-16T16:40:00.893Z,5.5
2023-03-16T16:45:00.833Z,5.5
2023-03-16T16:50:00.780Z,5.5
2023-03-16T16:55:00.807Z,5.5
2023-03-16T17:00:00.761Z,5.4
2023-03-16T17:05:00.713Z,5.5
2023-03-16T17:10:00.774Z,5.5
2023-03-16T17:15:00.763Z,5.4
2023-03-16T17:20:00.755Z,5.3
2023-03-16T17:25:00.725Z,5.4
2023-03-16T17:30:00.862Z,5.3
2023-03-16T17:35:00.765Z,5.3
2023-03-16T17:40:00.794Z,5.3
2023-03-16T17:45:00.762Z,5.3
2023-03-16T17:50:00.798Z,5.2
2023-03-16T17:55:00.773Z,5.2
2023-03-16T18:00:00.893Z,5.1
2023-03-16T18:05:00.715Z,5.2
2023-03-16T18:10:00.738Z,5.1
2023-03-16T18:15:00.772Z,5.1
2023-03-16T18:20:00.796Z,5.1
2023-03-16T18:25:00.772Z,5.2
2023-03-16T18:30:00.790Z,5.2
2023-03-16T18:35:02.857Z,5.1
2023-03-16T18:40:00.698Z,5.1
2023-03-16T18:45:00.871Z,5.1
2023-03-16T18:50:00.808Z,5.1
2023-03-16T18:55:00.756Z,5
2023-03-16T19:00:00.745Z,5
2023-03-16T19:05:00.776Z,5
2023-03-16T19:10:00.882Z,5.1
2023-03-16T19:15:00.790Z,5
2023-03-16T19:20:00.838Z,5
2023-03-16T19:25:00.869Z,4.9
2023-03-16T19:30:00.756Z,4.9
2023-03-16T19:35:00.745Z,4.9
2023-03-16T19:40:00.744Z,4.9
2023-03-16T19:45:00.792Z,4.8
2023-03-16T19:50:00.863Z,4.9
2023-03-16T19:55:00.749Z,4.8
2023-03-16T20:00:00.731Z,4.8
2023-03-16T20:05:00.732Z,4.8
2023-03-16T20:10:00.944Z,4.7
2023-03-16T20:15:00.741Z,4.7
2023-03-16T20:20:00.817Z,4.7
2023-03-16T20:25:00.795Z,4.7
2023-03-16T20:30:00.786Z,4.7
2023-03-16T20:35:01.177Z,4.6
2023-03-16T20:40:01.074Z,4.6
2023-03-16T20:45:00.875Z,4.6
2023-03-16T20:50:00.719Z,4.6
2023-03-16T20:55:00.736Z,4.6
2023-03-16T21:00:00.735Z,4.7
2023-03-16T21:10:00.766Z,4.7
2023-03-16T21:15:01.085Z,4.6
2023-03-16T21:20:00.800Z,4.6
2023-03-16T21:25:00.755Z,4.6
2023-03-16T21:30:00.768Z,4.6
2023-03-16T21:35:00.806Z,4.5
2023-03-16T21:40:01.436Z,4.6
2023-03-16T21:45:00.823Z,4.5
2023-03-16T21:50:00.802Z,4.5
2023-03-16T21:55:00.736Z,4.5
2023-03-16T22:00:00.741Z,4.4
2023-03-16T22:05:00.738Z,4.5
2023-03-16T22:10:00.781Z,4.4
2023-03-16T22:15:00.790Z,4.4
2023-03-16T22:20:00.739Z,4.4
2023-03-16T22:25:00.757Z,4.4
2023-03-16T22:30:00.773Z,4.4
2023-03-16T22:35:00.742Z,4.4
2023-03-16T22:40:00.766Z,4.3
2023-03-16T22:45:00.824Z,4.3
2023-03-16T22:50:00.746Z,4.3
2023-03-16T22:55:00.796Z,4.3
2023-03-16T23:00:00.724Z,4.3
2023-03-16T23:05:00.879Z,4.3
2023-03-16T23:10:00.749Z,4.3
2023-03-16T23:15:00.857Z,4.3
2023-03-16T23:20:01.208Z,4.3
2023-03-16T23:25:00.821Z,4.2
2023-03-16T23:30:00.823Z,4.2
2023-03-16T23:35:00.741Z,4.3
2023-03-16T23:45:00.693Z,4.3
2023-03-16T23:50:00.772Z,4.3
2023-03-16T23:55:00.744Z,4.3
